Time;durP1;ratioP1;P1;durP2;ratioP2;P2;SDS_P1;SDS_P2;PMS_P1;PMS_P2;Temp;Humidity;BMP_temperature;BMP_pressure;BME280_temperature;BME280_humidity;BME280_pressure;Samples;Min_cycle;Max_cycle;Signal;HPM_P1;HPM_P2
2023/01/30 05:01:40;;;;;;;34.85;19.15;;;;;;;0.23;74.57;100868.34;5608917;31;125552;-55
2023/01/30 05:04:43;;;;;;;32.63;19.08;;;;;;;0.23;74.57;100868.34;5603600;31;32938;-55
2023/01/30 05:07:45;;;;;;;33.67;19.08;;;;;;;-0.41;81.77;100856.41;5603611;31;33672;-56
2023/01/30 05:10:48;;;;;;;28.15;17.02;;;;;;;-0.67;77.91;100851.00;5583900;31;33545;-56
2023/01/30 05:13:50;;;;;;;29.60;17.92;;;;;;;-0.38;71.72;100848.09;5584038;31;33859;-56
2023/01/30 05:16:53;;;;;;;33.00;20.58;;;;;;;-0.35;70.87;100841.66;5583945;31;34284;-55
2023/01/30 05:19:55;;;;;;;32.15;20.25;;;;;;;-0.47;81.93;100850.09;5587865;31;32897;-55
2023/01/30 05:22:57;;;;;;;28.15;18.92;;;;;;;-0.54;82.08;100845.81;5583452;32;33760;-55
2023/01/30 05:26:00;;;;;;;29.08;18.58;;;;;;;-0.03;89.54;100862.03;5583794;31;34221;-55
2023/01/30 05:29:03;;;;;;;32.70;18.95;;;;;;;-0.30;72.47;100845.31;5583169;31;33570;-56
2023/01/30 05:32:05;;;;;;;27.62;17.77;;;;;;;0.06;78.09;100844.19;5591407;31;34440;-56
2023/01/30 05:35:08;;;;;;;29.75;17.70;;;;;;;0.09;70.86;100843.78;5603508;31;33533;-56
2023/01/30 05:38:10;;;;;;;27.20;17.30;;;;;;;-0.17;70.73;100841.09;5603297;31;33621;-56
2023/01/30 05:41:14;;;;;;;53.80;20.02;;;;;;;-0.24;72.07;100835.78;5603125;31;34378;-56
2023/01/30 05:44:16;;;;;;;30.58;19.45;;;;;;;-0.10;99.87;100840.13;5585968;31;33429;-56
2023/01/30 05:47:19;;;;;;;27.30;17.75;;;;;;;-0.31;86.97;100835.78;5583030;31;33370;-56
2023/01/30 05:50:21;;;;;;;33.70;20.25;;;;;;;-0.09;73.48;100836.47;5590365;31;34297;-55
2023/01/30 05:53:27;;;;;;;28.65;18.37;;;;;;;-0.12;76.66;100834.22;5591911;31;34331;-56
2023/01/30 05:56:32;;;;;;;27.77;18.17;;;;;;;0.06;70.76;100846.81;5582187;31;33702;-56
2023/01/30 05:59:34;;;;;;;28.52;18.30;;;;;;;-0.04;70.05;100841.13;5583256;31;34394;-56
2023/01/30 06:02:37;;;;;;;26.08;18.05;;;;;;;-0.13;77.27;100839.69;5588329;31;34361;-55
2023/01/30 06:05:40;;;;;;;31.42;19.95;;;;;;;-0.09;72.18;100840.94;5587339;31;33590;-57
2023/01/30 06:08:42;;;;;;;30.27;18.02;;;;;;;-0.06;73.73;100832.63;5602880;31;33685;-56
2023/01/30 06:11:45;;;;;;;30.15;18.40;;;;;;;-0.04;70.67;100841.94;5579904;31;33094;-56
2023/01/30 06:14:47;;;;;;;28.80;19.23;;;;;;;0.05;70.80;100837.31;5569055;32;33579;-56
2023/01/30 06:17:49;;;;;;;31.65;19.60;;;;;;;-0.12;71.19;100834.22;5570157;31;33646;-55
2023/01/30 06:20:52;;;;;;;28.15;18.70;;;;;;;0.11;89.03;100843.59;5577464;31;33874;-56
2023/01/30 06:23:55;;;;;;;32.25;19.95;;;;;;;0.11;72.44;100839.16;5589501;31;34300;-56
2023/01/30 06:26:58;;;;;;;29.73;19.83;;;;;;;0.07;76.35;100839.75;5579361;31;34555;-56
2023/01/30 06:30:01;;;;;;;32.35;19.65;;;;;;;-0.15;71.71;100842.53;5569468;31;33570;-55
2023/01/30 06:33:03;;;;;;;33.95;20.00;;;;;;;-0.11;74.09;100840.31;5569040;31;33929;-56
2023/01/30 06:36:06;;;;;;;32.83;20.48;;;;;;;-0.22;77.43;100844.31;5569665;32;34260;-56
2023/01/30 06:39:08;;;;;;;33.72;21.08;;;;;;;-0.11;76.76;100841.09;5567521;31;34361;-56
2023/01/30 06:42:11;;;;;;;33.40;21.02;;;;;;;0.17;97.68;100833.06;5569840;31;34321;-56
2023/01/30 06:45:15;;;;;;;35.92;20.75;;;;;;;0.33;92.94;100828.41;5568203;32;33863;-56
2023/01/30 06:48:18;;;;;;;31.67;20.95;;;;;;;0.22;84.32;100820.09;5569287;32;34422;-55
2023/01/30 06:51:20;;;;;;;36.03;21.27;;;;;;;0.65;91.02;100813.63;5569004;31;33921;-56
2023/01/30 06:54:23;;;;;;;40.97;21.52;;;;;;;0.55;74.90;100816.66;5586665;31;33578;-56
2023/01/30 06:57:25;;;;;;;42.85;21.90;;;;;;;0.51;89.14;100820.72;5587392;31;33370;-57
2023/01/30 07:00:28;;;;;;;35.80;22.42;;;;;;;0.47;77.53;100828.25;5576408;31;33418;-57
2023/01/30 07:03:30;;;;;;;33.63;21.20;;;;;;;0.48;78.15;100829.03;5573302;31;33653;-56
2023/01/30 07:06:32;;;;;;;35.45;21.27;;;;;;;0.54;78.10;100816.87;5569680;32;33240;-56
2023/01/30 07:09:34;;;;;;;32.92;21.23;;;;;;;0.68;75.16;100808.75;5561843;31;33558;-56
2023/01/30 07:12:38;;;;;;;36.78;21.25;;;;;;;0.62;72.89;100808.75;5557883;31;34324;-56
2023/01/30 07:15:41;;;;;;;32.03;19.42;;;;;;;0.70;71.22;100808.56;5564304;31;33781;-56
2023/01/30 07:18:44;;;;;;;34.90;21.87;;;;;;;0.61;74.51;100807.94;5566092;31;33220;-56
2023/01/30 07:21:46;;;;;;;33.95;20.90;;;;;;;0.61;71.88;100809.78;5554808;31;33243;-56
2023/01/30 07:24:48;;;;;;;37.30;22.73;;;;;;;0.64;71.93;100810.16;5562472;31;34588;-56
2023/01/30 07:27:53;;;;;;;39.90;23.12;;;;;;;0.78;76.98;100818.06;5569190;32;33601;-56
2023/01/30 07:30:58;;;;;;;34.95;21.67;;;;;;;0.90;79.09;100811.16;5563526;31;33668;-56
2023/01/30 07:34:03;;;;;;;35.28;19.48;;;;;;;0.97;74.48;100809.31;5577274;31;34204;-56
2023/01/30 07:37:07;;;;;;;32.05;21.45;;;;;;;1.07;77.50;100804.44;5551389;31;34208;-56
2023/01/30 07:40:11;;;;;;;35.80;21.23;;;;;;;1.09;72.57;100802.41;5563878;31;34395;-57
2023/01/30 07:43:13;;;;;;;35.78;20.60;;;;;;;1.13;72.42;100795.69;5569092;32;34192;-57
2023/01/30 07:46:15;;;;;;;35.85;21.37;;;;;;;1.28;70.16;100808.62;5566830;32;33880;-56
2023/01/30 07:49:18;;;;;;;34.78;20.98;;;;;;;1.20;77.19;100797.50;5567347;31;33553;-56
2023/01/30 07:52:20;;;;;;;34.40;21.37;;;;;;;1.22;72.59;100793.59;5556853;31;33574;-57
2023/01/30 07:55:22;;;;;;;36.00;20.45;;;;;;;1.28;70.03;100792.78;5564395;32;33765;-56
2023/01/30 07:58:24;;;;;;;35.17;20.62;;;;;;;1.35;73.12;100792.75;5561497;31;34236;-56
2023/01/30 08:01:27;;;;;;;33.95;19.77;;;;;;;1.30;70.32;100784.66;5588173;31;33633;-56
2023/01/30 08:04:29;;;;;;;32.78;19.67;;;;;;;1.24;71.30;100790.78;5588766;31;33699;-56
2023/01/30 08:07:32;;;;;;;33.80;19.77;;;;;;;1.33;78.78;100786.88;5586636;31;33643;-57
2023/01/30 08:10:34;;;;;;;33.80;20.77;;;;;;;1.49;70.92;100788.22;5552326;31;34159;-56
2023/01/30 08:13:38;;;;;;;31.60;20.42;;;;;;;1.51;69.38;100775.63;5556878;32;33387;-56
2023/01/30 08:16:41;;;;;;;35.17;20.02;;;;;;;1.46;71.99;100770.97;5549319;32;33627;-56
2023/01/30 08:19:43;;;;;;;41.33;25.75;;;;;;;1.70;75.31;100758.06;5560893;31;34594;-56
2023/01/30 08:22:45;;;;;;;41.03;26.17;;;;;;;1.88;88.17;100737.78;5568651;32;33801;-56
2023/01/30 08:25:48;;;;;;;42.80;25.77;;;;;;;1.81;94.88;100721.16;5568764;32;33325;-56
2023/01/30 08:28:50;;;;;;;44.15;25.45;;;;;;;1.76;84.11;100713.06;5569204;31;33696;-56
2023/01/30 08:31:56;;;;;;;42.30;26.12;;;;;;;1.76;74.30;100723.66;5581269;31;33656;-56
2023/01/30 08:34:59;;;;;;;41.58;26.60;;;;;;;1.90;86.80;100719.09;5565171;31;34263;-56
2023/01/30 08:38:04;;;;;;;41.55;27.48;;;;;;;1.76;71.87;100723.66;5569138;31;33513;-56
2023/01/30 08:41:07;;;;;;;41.40;25.75;;;;;;;1.84;75.27;100719.94;5567506;32;32015;-56
2023/01/30 08:44:10;;;;;;;41.33;28.40;;;;;;;1.92;81.94;100710.91;5567015;32;33748;-56
2023/01/30 08:47:12;;;;;;;48.58;29.63;;;;;;;1.87;79.72;100716.88;5567605;32;34378;-56
2023/01/30 08:50:15;;;;;;;43.67;28.90;;;;;;;1.90;71.41;100713.78;5567557;32;34385;-55
2023/01/30 08:53:18;;;;;;;46.80;29.50;;;;;;;1.87;69.99;100711.56;5567322;32;34349;-56
2023/01/30 08:56:20;;;;;;;44.35;28.42;;;;;;;1.89;80.58;100714.81;5566510;32;33623;-57
2023/01/30 08:59:23;;;;;;;46.37;29.73;;;;;;;2.03;69.69;100710.25;5565376;32;33514;-55
2023/01/30 09:02:25;;;;;;;47.10;28.80;;;;;;;2.14;69.03;100711.37;5559393;32;33648;-56
2023/01/30 09:05:29;;;;;;;46.10;28.87;;;;;;;2.22;70.35;100711.09;5561337;31;33757;-56
2023/01/30 09:08:31;;;;;;;42.72;28.65;;;;;;;2.21;69.72;100707.63;5567714;32;33893;-55
2023/01/30 09:11:34;;;;;;;45.20;25.88;;;;;;;2.39;80.96;100698.94;5567597;31;34263;-56
2023/01/30 09:14:36;;;;;;;40.80;25.52;;;;;;;2.52;72.71;100713.91;5559441;31;34560;-56
2023/01/30 09:17:38;;;;;;;37.50;24.00;;;;;;;2.44;71.11;100704.38;5571710;31;34413;-56
2023/01/30 09:20:41;;;;;;;30.12;21.10;;;;;;;2.43;71.27;100697.47;5560813;32;33662;-56
2023/01/30 09:23:44;;;;;;;33.47;20.05;;;;;;;2.48;71.46;100681.75;5567291;32;34868;-56
2023/01/30 09:26:47;;;;;;;35.70;21.27;;;;;;;2.44;71.01;100688.50;5566238;31;33335;-57
2023/01/30 09:29:50;;;;;;;30.55;21.23;;;;;;;2.47;70.18;100684.63;5568463;31;33262;-56
2023/01/30 09:32:52;;;;;;;33.60;22.15;;;;;;;2.50;71.99;100682.34;5566787;32;33685;-56
2023/01/30 09:35:55;;;;;;;32.65;21.90;;;;;;;3.35;100.00;100681.53;5554697;32;34316;-55
2023/01/30 09:38:57;;;;;;;35.50;22.02;;;;;;;3.19;72.46;100684.81;5553992;32;33570;-56
2023/01/30 09:42:27;;;;;;;36.10;22.73;;;;;;;3.04;71.87;100664.81;5557972;32;34270;-56
2023/01/30 09:45:57;;;;;;;35.90;23.02;;;;;;;2.94;70.58;100658.44;5567078;32;33636;-55
2023/01/30 09:49:03;;;;;;;34.17;21.62;;;;;;;2.94;70.69;100653.13;5569669;32;33721;-56
2023/01/30 09:52:29;;;;;;;36.17;22.08;;;;;;;2.91;69.82;100642.97;5570160;32;34385;-55
2023/01/30 09:55:37;;;;;;;36.33;23.23;;;;;;;2.94;69.35;100643.34;5568745;32;33909;-56
2023/01/30 09:59:00;;;;;;;36.85;22.67;;;;;;;2.98;69.68;100641.06;5569784;32;33641;-56
2023/01/30 10:02:08;;;;;;;38.70;23.50;;;;;;;2.82;74.88;100631.91;5568540;31;33251;-56
2023/01/30 10:05:11;;;;;;;38.33;25.70;;;;;;;2.83;70.83;100623.72;5565267;32;33630;-56
2023/01/30 10:08:25;;;;;;;39.72;24.85;;;;;;;2.88;71.50;100622.25;5562203;32;33848;-56
2023/01/30 10:11:43;;;;;;;33.03;23.40;;;;;;;2.98;71.88;100625.16;5562550;32;33725;-55
2023/01/30 10:14:55;;;;;;;40.35;24.08;;;;;;;3.00;70.79;100607.22;5568808;31;34257;-56
2023/01/30 10:18:15;;;;;;;32.60;22.48;;;;;;;3.02;71.26;100590.09;5556658;32;34122;-56
2023/01/30 10:21:41;;;;;;;38.70;21.92;;;;;;;3.19;73.25;100589.44;5565534;31;33377;-55
2023/01/30 10:25:02;;;;;;;35.75;22.73;;;;;;;3.36;71.77;100586.97;5566321;32;32097;-56
2023/01/30 10:28:21;;;;;;;32.97;21.08;;;;;;;3.36;73.11;100579.00;5564754;32;34087;-56
2023/01/30 10:31:29;;;;;;;30.25;20.05;;;;;;;3.71;87.76;100569.25;5563370;32;33679;-56
2023/01/30 10:34:36;;;;;;;28.33;18.75;;;;;;;3.72;71.64;100559.47;5566205;32;33669;-55
2023/01/30 10:37:50;;;;;;;28.17;18.90;;;;;;;3.98;72.83;100560.84;5565187;32;33600;-56
2023/01/30 10:41:20;;;;;;;33.15;18.35;;;;;;;3.89;84.08;100538.34;5562820;32;33301;-55
2023/01/30 10:44:23;;;;;;;30.65;19.75;;;;;;;3.78;73.90;100536.53;5566593;32;33591;-56
2023/01/30 10:47:47;;;;;;;28.77;19.20;;;;;;;3.76;69.91;100534.09;5556183;32;33635;-56
2023/01/30 10:51:02;;;;;;;29.15;19.70;;;;;;;3.64;71.33;100515.56;5562174;32;33342;-56
2023/01/30 10:54:12;;;;;;;27.77;19.60;;;;;;;3.73;70.94;100522.09;5569748;32;33964;-56
2023/01/30 10:57:32;;;;;;;31.87;19.77;;;;;;;3.82;80.47;100506.66;5568635;32;33647;-56
2023/01/30 11:00:52;;;;;;;30.60;19.75;;;;;;;3.95;73.93;100495.00;5568180;32;34332;-56
2023/01/30 11:04:03;;;;;;;31.77;20.60;;;;;;;4.05;70.15;100487.25;5568348;32;34311;-56
2023/01/30 11:07:05;;;;;;;30.08;20.02;;;;;;;3.87;70.58;100477.56;5568185;32;34339;-58
2023/01/30 11:10:26;;;;;;;29.17;20.33;;;;;;;3.89;69.28;100474.72;5568016;32;33808;-58
2023/01/30 11:13:31;;;;;;;32.05;20.45;;;;;;;3.92;69.58;100468.94;5561829;32;33578;-55
2023/01/30 11:16:43;;;;;;;32.58;20.77;;;;;;;3.87;70.42;100466.16;5554963;32;33832;-55
2023/01/30 11:19:54;;;;;;;31.25;21.58;;;;;;;4.04;76.30;100434.41;5563119;32;34029;-56
2023/01/30 11:23:06;;;;;;;32.00;20.83;;;;;;;4.04;69.84;100447.66;5568417;32;34321;-56
2023/01/30 11:26:44;;;;;;;31.30;20.70;;;;;;;4.02;74.07;100439.97;5564852;32;33676;-56
2023/01/30 11:30:02;;;;;;;29.45;20.62;;;;;;;4.00;71.17;100429.56;5521122;31;34093;-56
2023/01/30 11:33:09;;;;;;;34.58;21.58;;;;;;;3.95;78.04;100424.19;5568968;32;34432;-59
2023/01/30 11:36:25;;;;;;;31.37;19.58;;;;;;;3.98;72.33;100421.06;5559581;32;34406;-58
2023/01/30 11:39:28;;;;;;;30.83;20.15;;;;;;;3.96;72.88;100407.22;5561202;32;34343;-56
2023/01/30 11:42:30;;;;;;;29.92;18.90;;;;;;;4.06;70.96;100397.84;5568661;32;34077;-56
2023/01/30 11:45:47;;;;;;;28.60;19.85;;;;;;;4.08;76.83;100398.44;5568252;32;33638;-55
2023/01/30 11:48:56;;;;;;;30.95;21.98;;;;;;;4.18;72.27;100398.62;5568761;32;33620;-56
2023/01/30 11:52:25;;;;;;;26.90;19.00;;;;;;;4.18;72.74;100380.06;5560353;32;33379;-58
2023/01/30 11:55:35;;;;;;;29.17;19.90;;;;;;;4.15;72.07;100370.72;5562834;32;34358;-55
2023/01/30 11:58:39;;;;;;;28.02;19.00;;;;;;;4.17;77.19;100376.59;5551835;32;33871;-57
2023/01/30 12:01:42;;;;;;;26.42;18.00;;;;;;;4.29;70.34;100375.72;5552624;32;33689;-56
2023/01/30 12:04:49;;;;;;;27.25;18.08;;;;;;;4.09;71.27;100369.00;5548910;32;33619;-57
2023/01/30 12:07:52;;;;;;;26.17;16.75;;;;;;;4.12;71.18;100363.22;5555901;32;33416;-57
2023/01/30 12:10:58;;;;;;;25.40;17.45;;;;;;;4.06;71.65;100361.50;5565445;32;33798;-56
2023/01/30 12:14:33;;;;;;;26.12;18.00;;;;;;;4.08;73.13;100358.63;5563967;32;33717;-56
2023/01/30 12:17:47;;;;;;;23.73;16.60;;;;;;;4.10;72.33;100359.19;5563631;32;33758;-56
2023/01/30 12:21:26;;;;;;;25.23;17.67;;;;;;;4.06;69.94;100352.75;5566403;32;33871;-57
2023/01/30 12:24:43;;;;;;;26.83;16.85;;;;;;;4.04;70.37;100347.69;5546150;32;33676;-56
2023/01/30 12:27:48;;;;;;;28.12;17.65;;;;;;;4.21;70.70;100335.25;5563383;32;33751;-56
2023/01/30 12:31:01;;;;;;;29.30;18.45;;;;;;;4.10;69.91;100322.03;5567318;32;33149;-56
2023/01/30 12:34:03;;;;;;;30.25;20.17;;;;;;;4.35;74.96;100303.91;5566731;32;33372;-56
2023/01/30 12:37:11;;;;;;;27.27;19.58;;;;;;;4.59;84.72;100293.94;5567976;32;33660;-56
2023/01/30 12:40:35;;;;;;;27.70;17.33;;;;;;;4.63;74.57;100287.09;5568196;32;33593;-56
2023/01/30 12:43:59;;;;;;;27.25;17.62;;;;;;;4.61;99.74;100285.75;5568167;32;33963;-57
2023/01/30 12:47:13;;;;;;;22.73;16.45;;;;;;;4.58;71.56;100287.03;5557875;32;32306;-56
2023/01/30 12:50:35;;;;;;;22.10;15.95;;;;;;;4.73;74.81;100291.75;5557698;32;33303;-56
2023/01/30 12:53:49;;;;;;;23.08;15.35;;;;;;;4.69;74.70;100293.28;5557397;32;34252;-56
2023/01/30 12:57:04;;;;;;;29.10;15.73;;;;;;;4.69;70.26;100302.06;5558495;32;33722;-56
2023/01/30 13:00:47;;;;;;;22.92;15.85;;;;;;;4.61;71.13;100296.38;5560413;32;33992;-56
2023/01/30 13:04:15;;;;;;;24.75;16.37;;;;;;;4.56;67.39;100305.03;5559261;32;33598;-57
2023/01/30 13:07:50;;;;;;;25.40;15.93;;;;;;;4.69;83.02;100282.66;5567658;32;34455;-56
2023/01/30 13:11:11;;;;;;;29.27;21.25;;;;;;;4.75;78.15;100272.94;5563375;32;33654;-56
2023/01/30 13:14:31;;;;;;;25.62;16.37;;;;;;;4.85;81.46;100270.41;5555324;32;33379;-57
2023/01/30 13:17:42;;;;;;;24.08;16.65;;;;;;;4.72;67.44;100264.37;5561051;32;33788;-57
2023/01/30 13:20:58;;;;;;;37.67;24.35;;;;;;;4.88;76.37;100252.12;5567912;32;33768;-56
2023/01/30 13:24:09;;;;;;;176.20;86.37;;;;;;;4.76;76.44;100247.97;5564777;32;34365;-57
2023/01/30 13:27:18;;;;;;;25.50;16.73;;;;;;;4.81;72.72;100254.16;5560273;32;33925;-56
2023/01/30 13:30:24;;;;;;;96.87;71.22;;;;;;;4.71;73.76;100238.09;5561419;32;34186;-56
2023/01/30 13:33:31;;;;;;;23.90;15.65;;;;;;;4.93;70.85;100240.75;5554591;32;33667;-56
2023/01/30 13:37:09;;;;;;;22.55;14.93;;;;;;;4.79;67.63;100248.28;5567027;32;34467;-57
2023/01/30 13:40:20;;;;;;;22.40;15.43;;;;;;;4.74;66.17;100239.47;5557374;32;34378;-56
2023/01/30 13:43:33;;;;;;;23.90;15.25;;;;;;;4.64;68.50;100243.56;5568304;32;33328;-57
2023/01/30 13:46:38;;;;;;;23.08;14.75;;;;;;;4.77;66.99;100237.13;5561216;32;33723;-56
2023/01/30 13:49:59;;;;;;;21.73;15.02;;;;;;;4.66;68.76;100230.84;5556926;32;33727;-57
2023/01/30 13:53:21;;;;;;;25.10;15.88;;;;;;;4.66;65.44;100241.47;5562765;32;34417;-56
2023/01/30 13:56:46;;;;;;;24.52;16.35;;;;;;;4.67;68.65;100236.97;5564117;32;34222;-56
2023/01/30 14:00:38;;;;;;;22.92;15.55;;;;;;;4.72;66.66;100235.19;5559783;32;33730;-57
2023/01/30 14:03:41;;;;;;;21.50;15.45;;;;;;;5.30;79.14;100205.63;5554764;32;33709;-57
2023/01/30 14:06:44;;;;;;;23.80;14.77;;;;;;;4.86;66.37;100235.62;5550494;32;34436;-57
2023/01/30 14:10:01;;;;;;;28.67;15.90;;;;;;;4.98;77.71;100229.41;5549059;32;33727;-57
2023/01/30 14:13:05;;;;;;;23.83;14.90;;;;;;;5.05;76.38;100214.09;5563568;32;33656;-57
2023/01/30 14:16:08;;;;;;;24.92;16.15;;;;;;;4.80;65.49;100218.03;5562948;32;31939;-56
2023/01/30 14:19:52;;;;;;;23.73;14.82;;;;;;;4.65;65.69;100218.62;5569563;32;34294;-57
2023/01/30 14:22:57;;;;;;;22.58;14.98;;;;;;;4.62;65.84;100216.44;5536030;31;34336;-57
2023/01/30 14:26:00;;;;;;;24.23;15.30;;;;;;;4.69;67.34;100213.63;5563202;32;34278;-56
2023/01/30 14:29:03;;;;;;;26.90;15.80;;;;;;;4.69;67.34;100216.28;5562453;32;33630;-56
2023/01/30 14:32:11;;;;;;;22.95;15.75;;;;;;;4.84;68.63;100221.81;5561059;32;35168;-57
2023/01/30 14:35:19;;;;;;;22.42;15.48;;;;;;;4.88;68.34;100228.22;5559416;32;34302;-57
2023/01/30 14:38:23;;;;;;;25.10;15.98;;;;;;;4.78;66.13;100229.94;5561291;32;33722;-56
2023/01/30 14:41:27;;;;;;;25.37;15.38;;;;;;;4.65;68.13;100231.91;5561763;32;34333;-57
2023/01/30 14:44:53;;;;;;;24.33;15.13;;;;;;;4.70;69.20;100221.34;5569224;32;34038;-57
2023/01/30 14:48:33;;;;;;;21.92;15.98;;;;;;;4.58;69.26;100239.22;5569079;32;33493;-56
2023/01/30 14:51:37;;;;;;;20.80;14.93;;;;;;;4.61;76.32;100228.13;5569296;32;34387;-57
2023/01/30 14:54:48;;;;;;;23.83;15.18;;;;;;;4.66;69.45;100230.03;5568277;32;34299;-57
2023/01/30 14:58:00;;;;;;;23.75;14.65;;;;;;;4.66;75.70;100225.53;5561063;32;34165;-56
2023/01/30 15:01:02;;;;;;;24.55;16.40;;;;;;;4.76;69.10;100219.56;5550044;32;33808;-57
2023/01/30 15:04:04;;;;;;;27.08;16.30;;;;;;;4.68;71.91;100212.81;5550235;32;34351;-56
2023/01/30 15:07:23;;;;;;;23.45;16.10;;;;;;;4.57;69.76;100236.81;5550145;32;33614;-56
2023/01/30 15:11:04;;;;;;;24.60;15.85;;;;;;;4.60;71.33;100229.19;5549664;32;34282;-57
2023/01/30 15:14:19;;;;;;;24.20;15.63;;;;;;;4.58;76.30;100225.97;5549889;32;34440;-57
2023/01/30 15:17:39;;;;;;;21.98;14.85;;;;;;;4.51;70.74;100230.66;5549520;32;33680;-57
2023/01/30 15:20:53;;;;;;;24.52;16.08;;;;;;;4.54;69.28;100226.72;5550183;32;34433;-57
2023/01/30 15:24:31;;;;;;;24.02;15.95;;;;;;;4.57;72.32;100237.63;5550218;32;33650;-57
2023/01/30 15:27:52;;;;;;;21.83;15.95;;;;;;;4.59;71.88;100230.22;5531278;32;33611;-57
2023/01/30 15:31:01;;;;;;;23.62;15.48;;;;;;;4.57;74.71;100239.47;5549785;32;33655;-57
2023/01/30 15:34:18;;;;;;;25.40;16.05;;;;;;;4.60;74.44;100229.19;5549769;32;34425;-56
2023/01/30 15:37:45;;;;;;;;;;;;;;;4.59;70.97;100232.06;5549649;32;33682;-56
2023/01/30 15:40:48;;;;;;;24.30;15.98;;;;;;;4.60;81.37;100221.22;5550126;32;34089;-57
2023/01/30 15:44:05;;;;;;;23.27;16.12;;;;;;;4.41;76.21;100231.28;5550662;32;34353;-57
2023/01/30 15:47:14;;;;;;;23.77;15.60;;;;;;;4.44;73.45;100237.97;5564807;32;34287;-56
2023/01/30 15:50:16;;;;;;;25.10;16.10;;;;;;;4.42;71.55;100245.38;5564041;32;33732;-56
2023/01/30 15:53:34;;;;;;;25.37;16.37;;;;;;;4.53;78.62;100249.75;5568820;32;33701;-56
2023/01/30 15:56:38;;;;;;;25.42;16.70;;;;;;;4.48;72.37;100245.19;5554619;32;34385;-56
2023/01/30 15:59:41;;;;;;;24.08;17.05;;;;;;;4.44;73.96;100252.03;5562531;32;33652;-57
2023/01/30 16:02:43;;;;;;;25.17;16.95;;;;;;;4.33;77.42;100246.81;5569405;31;33587;-56
2023/01/30 16:05:51;;;;;;;22.42;15.60;;;;;;;4.39;93.81;100259.12;5569079;32;34401;-56
2023/01/30 16:08:59;;;;;;;26.25;16.95;;;;;;;4.49;86.10;100259.28;5569300;32;34560;-57
2023/01/30 16:12:02;;;;;;;26.52;16.70;;;;;;;4.22;78.85;100262.56;5569690;32;33671;-57
2023/01/30 16:15:04;;;;;;;21.55;15.25;;;;;;;4.31;77.67;100260.34;5569053;32;33366;-56
2023/01/30 16:18:38;;;;;;;23.98;16.05;;;;;;;4.20;77.19;100246.06;5569351;32;33642;-56
2023/01/30 16:21:44;;;;;;;22.15;15.50;;;;;;;4.10;79.19;100243.25;5569194;32;33838;-56
2023/01/30 16:24:52;;;;;;;24.42;15.88;;;;;;;3.99;82.11;100246.81;5569184;32;34437;-57
2023/01/30 16:27:54;;;;;;;23.02;15.73;;;;;;;4.06;81.58;100250.09;5569347;32;33474;-57
2023/01/30 16:30:57;;;;;;;24.45;17.73;;;;;;;3.95;80.46;100250.97;5568834;32;32117;-56
2023/01/30 16:33:59;;;;;;;26.20;17.62;;;;;;;3.95;79.48;100253.63;5568916;32;33771;-56
2023/01/30 16:37:24;;;;;;;24.98;17.08;;;;;;;3.97;79.41;100260.31;5569026;32;34440;-56
2023/01/30 16:40:42;;;;;;;24.67;16.40;;;;;;;3.98;81.25;100269.06;5569127;32;34393;-56
2023/01/30 16:43:44;;;;;;;26.20;15.95;;;;;;;3.95;80.08;100278.31;5568992;32;33372;-56
2023/01/30 16:46:57;;;;;;;26.02;17.30;;;;;;;4.09;83.29;100273.50;5568783;32;33815;-56
2023/01/30 16:49:59;;;;;;;25.73;16.27;;;;;;;4.11;94.75;100276.72;5568983;32;33774;-55
2023/01/30 16:53:02;;;;;;;23.65;15.20;;;;;;;4.08;88.10;100277.19;5568883;32;33733;-56
2023/01/30 16:56:13;;;;;;;26.55;17.70;;;;;;;4.03;90.03;100263.03;5568491;32;34402;-56
2023/01/30 16:59:29;;;;;;;26.25;17.30;;;;;;;4.03;83.96;100274.44;5568474;32;33984;-56
2023/01/30 17:02:38;;;;;;;41.15;17.98;;;;;;;4.15;90.17;100266.44;5568894;32;33558;-57
2023/01/30 17:05:41;;;;;;;24.42;16.15;;;;;;;4.16;99.56;100263.53;5568459;32;34303;-56
2023/01/30 17:08:48;;;;;;;22.25;16.30;;;;;;;4.11;100.00;100260.00;5568707;32;33754;-56
2023/01/30 17:11:50;;;;;;;25.80;17.10;;;;;;;4.06;93.69;100273.97;5568541;32;33348;-56
2023/01/30 17:15:10;;;;;;;24.35;16.33;;;;;;;3.92;88.98;100272.69;5568521;32;33660;-56
2023/01/30 17:18:12;;;;;;;24.35;16.45;;;;;;;3.99;92.95;100273.31;5568265;32;33697;-56
